Time;durP1;ratioP1;P1;durP2;ratioP2;P2;SDS_P1;SDS_P2;PMS_P1;PMS_P2;Temp;Humidity;BMP_temperature;BMP_pressure;BME280_temperature;BME280_humidity;BME280_pressure;Samples;Min_cycle;Max_cycle;Signal;HPM_P1;HPM_P2
2022/08/08 00:00:10;;;;;;;15.15;8.02;;;;;;;15.32;71.48;102218.28;5000863;28;20384;-72
2022/08/08 00:03:20;;;;;;;11.85;7.53;;;;;;;15.32;71.65;102209.19;4990258;28;20030;-72
2022/08/08 00:05:55;;;;;;;11.75;7.43;;;;;;;15.23;71.71;102213.72;4979290;28;20026;-71
2022/08/08 00:08:43;;;;;;;10.13;7.20;;;;;;;14.99;72.73;102210.75;4995793;28;20026;-72
2022/08/08 00:11:31;;;;;;;10.48;7.72;;;;;;;15.27;72.69;102215.16;4999863;28;20061;-70
2022/08/08 00:14:08;;;;;;;10.35;7.35;;;;;;;15.37;71.54;102215.91;4991781;28;20030;-70
2022/08/08 00:16:55;;;;;;;12.32;7.90;;;;;;;15.64;70.70;102203.19;5002733;28;20034;-70
2022/08/08 00:19:34;;;;;;;11.15;7.28;;;;;;;15.65;70.53;102202.19;4996351;28;20061;-70
2022/08/08 00:22:11;;;;;;;12.52;7.65;;;;;;;15.58;70.55;102201.91;4998420;28;20041;-70
2022/08/08 00:24:51;;;;;;;14.90;8.10;;;;;;;15.40;71.15;102201.97;4996839;28;20081;-70
2022/08/08 00:27:19;;;;;;;9.57;6.57;;;;;;;15.33;71.55;102203.59;4998750;28;20064;-71
2022/08/08 00:29:52;;;;;;;12.55;7.35;;;;;;;15.33;71.74;102200.88;5010664;28;20076;-71
2022/08/08 00:32:44;;;;;;;12.88;7.45;;;;;;;15.31;71.76;102202.03;4995823;28;20033;-69
2022/08/08 00:35:28;;;;;;;12.93;7.47;;;;;;;15.21;72.16;102196.66;5021134;28;20022;-70
2022/08/08 00:38:03;;;;;;;11.30;7.43;;;;;;;15.16;72.68;102199.00;4994939;28;20038;-70
2022/08/08 00:40:28;;;;;;;12.55;8.05;;;;;;;15.33;72.67;102203.59;4999145;28;20084;-71
2022/08/08 00:43:17;;;;;;;11.98;7.95;;;;;;;15.42;72.74;102205.38;4997109;28;20393;-70
2022/08/08 00:45:49;;;;;;;13.52;8.73;;;;;;;15.52;72.23;102208.03;4995782;28;20026;-71
2022/08/08 00:48:48;;;;;;;15.90;8.60;;;;;;;15.52;71.53;102212.59;5012709;28;20026;-71
2022/08/08 00:51:41;;;;;;;12.57;8.25;;;;;;;15.50;71.34;102198.28;5016037;28;20060;-71
2022/08/08 00:54:29;;;;;;;16.38;7.65;;;;;;;15.41;71.44;102200.09;4999984;28;20030;-71
2022/08/08 00:57:40;;;;;;;13.38;7.82;;;;;;;15.31;71.48;102205.63;4990582;28;20060;-71
2022/08/08 01:00:18;;;;;;;11.77;7.80;;;;;;;15.10;72.25;102196.91;4997406;28;20027;-71
2022/08/08 01:02:50;;;;;;;10.82;7.30;;;;;;;15.15;72.63;102200.03;4995497;28;20026;-71
2022/08/08 01:05:54;;;;;;;16.17;8.30;;;;;;;15.14;72.21;102195.59;4997998;28;20033;-71
2022/08/08 01:08:37;;;;;;;13.82;7.78;;;;;;;15.06;71.90;102200.94;5005743;28;20061;-71
2022/08/08 01:11:39;;;;;;;12.43;8.43;;;;;;;15.02;72.42;102199.53;5002349;28;20026;-71
2022/08/08 01:14:33;;;;;;;13.50;8.43;;;;;;;14.98;72.92;102193.53;5016061;28;20022;-72
2022/08/08 01:17:37;;;;;;;15.30;8.60;;;;;;;14.85;73.11;102193.91;5004404;28;20057;-71
2022/08/08 01:20:47;;;;;;;12.65;8.43;;;;;;;14.81;72.72;102203.44;4984997;28;20428;-71
2022/08/08 01:23:38;;;;;;;13.30;7.82;;;;;;;14.54;73.51;102206.16;4998787;28;20083;-71
2022/08/08 01:26:32;;;;;;;16.27;8.95;;;;;;;14.73;73.02;102206.03;4997043;28;20014;-71
2022/08/08 01:29:13;;;;;;;17.50;8.70;;;;;;;14.75;73.51;102200.44;4995230;28;20065;-71
2022/08/08 01:31:57;;;;;;;14.95;9.00;;;;;;;14.60;74.11;102194.63;4996130;28;20065;-71
2022/08/08 01:34:41;;;;;;;16.67;8.57;;;;;;;14.45;74.45;102199.72;4986742;28;20034;-70
2022/08/08 01:37:37;;;;;;;14.25;9.07;;;;;;;14.39;74.73;102203.91;4993792;28;20044;-70
2022/08/08 01:40:40;;;;;;;13.95;8.00;;;;;;;14.29;75.08;102208.56;4988479;28;20049;-71
2022/08/08 01:43:08;;;;;;;14.00;9.00;;;;;;;14.28;75.29;102206.84;4990872;28;20515;-70
2022/08/08 01:45:58;;;;;;;17.42;8.98;;;;;;;14.25;75.41;102201.66;4994857;28;20037;-70
2022/08/08 01:48:56;;;;;;;13.85;8.85;;;;;;;14.22;75.08;102212.88;4992159;28;20034;-71
2022/08/08 01:51:32;;;;;;;14.10;8.57;;;;;;;13.70;78.32;102211.59;4998478;28;20042;-71
2022/08/08 01:54:38;;;;;;;16.17;10.20;;;;;;;13.78;77.48;102211.72;4990512;28;20034;-71
2022/08/08 01:57:25;;;;;;;13.55;8.05;;;;;;;13.81;77.79;102203.25;4998496;28;20033;-71
2022/08/08 02:00:16;;;;;;;13.55;8.48;;;;;;;14.01;76.54;102206.78;5003925;28;20030;-71
2022/08/08 02:03:12;;;;;;;14.82;8.68;;;;;;;14.07;75.93;102201.59;5014257;28;20052;-71
2022/08/08 02:06:03;;;;;;;10.23;7.55;;;;;;;13.96;75.79;102211.81;4990589;28;20045;-71
2022/08/08 02:08:38;;;;;;;13.98;8.18;;;;;;;13.91;75.67;102204.09;4988566;28;20036;-71
2022/08/08 02:11:12;;;;;;;13.55;8.63;;;;;;;13.91;75.94;102203.25;4985923;28;20506;-71
2022/08/08 02:13:51;;;;;;;12.07;7.70;;;;;;;13.88;76.45;102208.97;4988526;28;20014;-70
2022/08/08 02:16:21;;;;;;;10.52;7.95;;;;;;;13.90;75.60;102206.97;4992241;28;20484;-70
2022/08/08 02:19:05;;;;;;;13.05;8.95;;;;;;;13.87;76.35;102208.09;5007764;28;20485;-71
2022/08/08 02:22:30;;;;;;;12.63;8.40;;;;;;;13.78;77.56;102198.09;5001217;28;20064;-71
2022/08/08 02:25:18;;;;;;;17.92;10.38;;;;;;;13.95;76.84;102199.19;4991096;28;20077;-71
2022/08/08 02:28:04;;;;;;;16.25;9.48;;;;;;;13.73;77.32;102203.97;4992235;28;20464;-71
2022/08/08 02:31:23;;;;;;;15.05;7.78;;;;;;;13.70;77.78;102206.16;5001593;28;20022;-71
2022/08/08 02:34:07;;;;;;;14.63;8.00;;;;;;;13.87;76.26;102212.69;4971583;28;20106;-71
2022/08/08 02:36:32;;;;;;;13.77;8.27;;;;;;;13.98;75.66;102204.34;5008604;28;20109;-71
2022/08/08 02:38:59;;;;;;;13.75;8.25;;;;;;;13.98;76.05;102204.34;5012289;28;20085;-71
2022/08/08 02:41:51;;;;;;;18.98;8.80;;;;;;;13.96;75.61;102211.81;4992967;28;20026;-71
2022/08/08 02:44:54;;;;;;;10.15;7.80;;;;;;;13.90;75.10;102206.97;4994330;28;20022;-71
2022/08/08 02:47:57;;;;;;;14.35;7.97;;;;;;;13.85;75.52;102200.09;4990547;28;20428;-71
2022/08/08 02:50:34;;;;;;;10.73;7.20;;;;;;;13.77;75.95;102208.13;4993259;28;20037;-71
2022/08/08 02:53:41;;;;;;;13.63;8.23;;;;;;;13.88;76.33;102203.50;4992206;28;20049;-71
2022/08/08 02:56:25;;;;;;;14.77;8.20;;;;;;;13.92;76.05;102205.81;5001560;28;20077;-71
2022/08/08 02:59:20;;;;;;;12.25;7.63;;;;;;;13.85;75.61;102204.69;5002141;28;20018;-70
2022/08/08 03:02:23;;;;;;;10.25;7.10;;;;;;;13.82;76.67;102204.94;5004821;28;20041;-71
2022/08/08 03:05:22;;;;;;;11.63;7.07;;;;;;;13.85;75.72;102213.69;4995953;28;20022;-71
2022/08/08 03:08:31;;;;;;;14.38;8.40;;;;;;;13.97;75.73;102219.00;5001035;28;20088;-71
2022/08/08 03:11:11;;;;;;;18.67;7.88;;;;;;;14.07;76.31;102206.19;4996302;28;20057;-71
2022/08/08 03:14:11;;;;;;;11.35;7.63;;;;;;;14.13;75.38;102213.75;5017251;28;20065;-69
2022/08/08 03:16:42;;;;;;;17.17;9.02;;;;;;;14.11;75.76;102210.34;4989627;28;20090;-70
2022/08/08 03:19:25;;;;;;;14.32;8.57;;;;;;;14.09;75.60;102223.25;4990547;28;20034;-69
2022/08/08 03:21:51;;;;;;;12.35;7.63;;;;;;;14.00;75.10;102224.13;4993882;28;20022;-70
2022/08/08 03:24:18;;;;;;;14.95;7.70;;;;;;;14.00;75.56;102213.22;5004319;28;20033;-70
2022/08/08 03:26:50;;;;;;;14.23;8.25;;;;;;;14.04;75.70;102214.66;4998863;28;20036;-70
2022/08/08 03:29:20;;;;;;;13.95;8.40;;;;;;;14.13;75.96;102224.66;5017839;28;20152;-70
2022/08/08 03:34:34;;;;;;;10.18;7.85;;;;;;;14.17;75.23;102215.19;4995938;28;20026;-70
2022/08/08 03:37:00;;;;;;;12.52;7.03;;;;;;;14.09;75.62;102217.81;4989766;28;20023;-70
2022/08/08 03:39:25;;;;;;;13.02;8.05;;;;;;;14.15;75.75;102222.66;4997834;28;20091;-70
2022/08/08 03:41:51;;;;;;;15.73;7.35;;;;;;;14.15;75.72;102222.66;4993298;28;20026;-69
2022/08/08 03:44:16;;;;;;;11.05;7.85;;;;;;;14.17;75.66;102226.09;5012763;28;20065;-70
2022/08/08 03:46:50;;;;;;;11.55;7.68;;;;;;;14.12;75.76;102228.38;5015602;28;20054;-69
2022/08/08 03:49:22;;;;;;;14.77;7.80;;;;;;;14.15;75.85;102233.56;5011715;28;20507;-70
2022/08/08 03:51:56;;;;;;;10.73;7.28;;;;;;;14.22;75.80;102234.69;5009144;28;20150;-71
2022/08/08 03:54:22;;;;;;;11.82;8.02;;;;;;;14.25;75.59;102234.38;4992214;28;20026;-71
2022/08/08 03:56:48;;;;;;;16.45;7.88;;;;;;;14.07;76.44;102241.59;5012611;28;20184;-71
2022/08/08 03:59:14;;;;;;;11.75;7.25;;;;;;;14.26;75.72;102233.34;5012282;28;20134;-71
2022/08/08 04:01:40;;;;;;;11.75;7.63;;;;;;;14.35;75.65;102235.19;4990408;28;20030;-71
2022/08/08 04:04:06;;;;;;;12.88;6.93;;;;;;;14.54;75.11;102236.13;4999167;28;20023;-70
2022/08/08 04:06:32;;;;;;;11.95;7.47;;;;;;;14.73;74.29;102233.31;5002537;28;20205;-70
2022/08/08 04:09:00;;;;;;;13.77;7.80;;;;;;;14.61;74.05;102234.53;5001193;28;20112;-70
2022/08/08 04:11:25;;;;;;;13.27;7.65;;;;;;;14.68;74.52;102238.38;5016648;28;20040;-71
2022/08/08 04:13:51;;;;;;;18.35;7.75;;;;;;;14.82;74.25;102242.47;4995598;28;20034;-71
2022/08/08 04:16:17;;;;;;;11.57;7.45;;;;;;;14.77;74.05;102245.63;4994205;28;20021;-71
2022/08/08 04:18:43;;;;;;;12.73;7.88;;;;;;;14.85;73.53;102245.72;5013778;28;20109;-71
2022/08/08 04:21:08;;;;;;;12.77;9.02;;;;;;;14.81;73.50;102247.06;4992005;28;20034;-71
2022/08/08 04:23:33;;;;;;;11.00;7.65;;;;;;;14.79;73.70;102248.19;5001904;28;20030;-71
2022/08/08 04:25:59;;;;;;;12.15;7.68;;;;;;;14.85;73.80;102248.44;4996226;28;20034;-71
2022/08/08 04:28:25;;;;;;;11.65;7.18;;;;;;;14.89;73.25;102255.31;5013198;28;20138;-69
2022/08/08 04:30:50;;;;;;;13.60;6.93;;;;;;;15.03;72.88;102250.34;5007616;28;20061;-69
2022/08/08 04:33:16;;;;;;;9.65;7.07;;;;;;;15.09;72.42;102244.28;4991663;28;20056;-71
2022/08/08 04:35:42;;;;;;;17.02;7.47;;;;;;;15.12;72.42;102254.88;4988460;28;20022;-69
2022/08/08 04:38:07;;;;;;;12.52;7.65;;;;;;;15.13;72.41;102243.84;5016651;28;20026;-70
2022/08/08 04:40:32;;;;;;;11.90;7.50;;;;;;;15.09;72.79;102244.28;4997853;28;20045;-70
2022/08/08 04:42:58;;;;;;;14.45;7.63;;;;;;;15.08;72.56;102248.03;4994689;28;20033;-70
2022/08/08 04:45:24;;;;;;;10.90;7.05;;;;;;;15.20;72.48;102252.25;5007088;28;20054;-70
2022/08/08 04:47:50;;;;;;;18.27;7.32;;;;;;;15.25;72.47;102249.91;4992555;28;20034;-70
2022/08/08 04:50:16;;;;;;;13.85;8.27;;;;;;;15.41;71.73;102244.63;4993926;28;20411;-70
2022/08/08 04:52:41;;;;;;;17.85;11.32;;;;;;;15.41;71.30;102239.16;5005581;28;20084;-70
2022/08/08 04:55:07;;;;;;;15.18;7.22;;;;;;;15.59;70.74;102247.34;5010894;28;20084;-70
2022/08/08 04:57:33;;;;;;;15.98;6.40;;;;;;;15.59;70.07;102241.03;4994520;28;20021;-70
2022/08/08 04:59:58;;;;;;;8.25;5.75;;;;;;;15.58;69.83;102244.75;4997851;28;20022;-70
2022/08/08 05:02:24;;;;;;;10.73;5.93;;;;;;;15.62;70.07;102246.19;4997811;28;20419;-71
2022/08/08 05:04:49;;;;;;;14.50;6.43;;;;;;;15.88;69.55;102241.63;4999536;28;20030;-71
2022/08/08 05:07:15;;;;;;;12.90;6.88;;;;;;;15.99;69.28;102244.09;4986484;28;20026;-70
2022/08/08 05:09:40;;;;;;;10.00;5.90;;;;;;;16.12;68.69;102251.88;4992030;28;20018;-70
2022/08/08 05:12:06;;;;;;;9.13;5.35;;;;;;;16.18;68.51;102250.38;5009544;28;20105;-70
2022/08/08 05:14:31;;;;;;;7.88;5.20;;;;;;;16.10;68.02;102253.03;5001824;28;20014;-70
2022/08/08 05:16:57;;;;;;;8.68;5.30;;;;;;;16.23;67.91;102261.66;4995386;28;20026;-70
2022/08/08 05:19:22;;;;;;;64.60;28.85;;;;;;;16.15;66.84;102258.88;4991490;28;20041;-70
2022/08/08 05:21:48;;;;;;;83.80;37.00;;;;;;;16.13;67.19;102261.78;4996417;28;20025;-69
2022/08/08 05:24:14;;;;;;;69.82;29.85;;;;;;;16.18;67.31;102253.09;5010989;28;20022;-71
2022/08/08 05:26:45;;;;;;;42.67;18.10;;;;;;;16.34;66.26;102257.78;4997200;28;20519;-70
2022/08/08 05:29:12;;;;;;;31.52;14.32;;;;;;;16.47;66.47;102264.53;4998732;28;20026;-70
2022/08/08 05:31:37;;;;;;;17.00;8.23;;;;;;;16.36;66.58;102262.06;5001284;28;20034;-71
2022/08/08 05:34:05;;;;;;;23.10;10.10;;;;;;;16.49;66.17;102251.53;4988654;28;20041;-71
2022/08/08 05:36:34;;;;;;;12.95;6.95;;;;;;;16.54;66.39;102260.13;4986255;28;20109;-71
2022/08/08 05:39:03;;;;;;;20.58;6.63;;;;;;;16.66;66.42;102262.56;4985023;28;20109;-71
2022/08/08 05:41:34;;;;;;;13.65;5.63;;;;;;;16.72;66.12;102261.94;5016374;28;20037;-71
2022/08/08 05:44:09;;;;;;;15.05;6.15;;;;;;;16.71;66.53;102272.03;4996114;28;20042;-71
2022/08/08 05:46:37;;;;;;;10.45;5.72;;;;;;;16.83;66.14;102269.88;5002801;28;20032;-71
2022/08/08 05:49:02;;;;;;;14.65;5.90;;;;;;;16.97;65.79;102277.44;4994947;28;20022;-71
2022/08/08 05:51:29;;;;;;;7.85;5.00;;;;;;;17.07;65.64;102267.19;4997996;28;20048;-71
2022/08/08 05:53:55;;;;;;;9.38;5.15;;;;;;;16.97;65.70;102269.22;4995206;28;20026;-71
2022/08/08 05:56:21;;;;;;;10.52;5.05;;;;;;;17.01;65.54;102284.25;5001775;28;20033;-71
2022/08/08 05:58:53;;;;;;;13.30;5.40;;;;;;;16.97;65.60;102269.22;4992912;28;20502;-71
2022/08/08 06:01:21;;;;;;;11.00;4.38;;;;;;;17.00;65.12;102281.69;4993055;28;20057;-71
2022/08/08 06:03:49;;;;;;;8.75;4.95;;;;;;;16.81;65.71;102278.22;4995642;28;20105;-72
2022/08/08 06:06:15;;;;;;;8.60;4.78;;;;;;;16.95;65.15;102278.59;4994795;28;20476;-71
2022/08/08 06:08:51;;;;;;;10.52;5.20;;;;;;;17.23;64.79;102281.94;4992813;28;20091;-71
2022/08/08 06:11:18;;;;;;;6.85;4.57;;;;;;;17.22;64.95;102285.72;4999144;28;20041;-71
2022/08/08 06:13:46;;;;;;;7.45;4.55;;;;;;;17.08;65.24;102284.47;4993262;28;20512;-72
2022/08/08 06:16:12;;;;;;;12.20;5.03;;;;;;;17.02;65.32;102291.47;4994283;28;20060;-71
2022/08/08 06:18:39;;;;;;;14.02;6.25;;;;;;;17.11;65.03;102294.25;5019798;28;20092;-71
2022/08/08 06:21:07;;;;;;;12.13;5.28;;;;;;;17.19;64.66;102286.03;5015840;28;20019;-71
2022/08/08 06:23:32;;;;;;;10.70;5.10;;;;;;;17.31;64.40;102290.19;4993315;28;20064;-69
2022/08/08 06:26:04;;;;;;;11.57;5.22;;;;;;;17.48;63.85;102291.06;4994711;28;20022;-68
2022/08/08 06:28:40;;;;;;;8.27;4.28;;;;;;;17.58;63.53;102292.59;4990552;28;20037;-68
2022/08/08 06:31:09;;;;;;;15.40;4.75;;;;;;;17.60;63.56;102296.06;4999390;28;20030;-69
2022/08/08 06:33:50;;;;;;;10.70;4.57;;;;;;;17.66;63.42;102294.50;4989133;28;20109;-69
2022/08/08 06:36:31;;;;;;;9.23;3.80;;;;;;;17.64;62.86;102302.88;4995754;28;20052;-69
2022/08/08 06:38:58;;;;;;;7.30;4.10;;;;;;;17.92;62.42;102304.47;5015395;28;20028;-69
2022/08/08 06:41:26;;;;;;;7.95;3.17;;;;;;;17.88;61.38;102309.44;4994106;28;20068;-69
2022/08/08 06:43:57;;;;;;;11.02;4.47;;;;;;;17.77;61.36;102307.03;5003215;28;20029;-69
2022/08/08 06:46:22;;;;;;;10.15;3.40;;;;;;;18.01;61.99;102309.78;4987846;28;20388;-69
2022/08/08 06:48:48;;;;;;;16.35;3.72;;;;;;;18.33;60.27;102316.28;5002698;28;20084;-69
2022/08/08 06:51:15;;;;;;;7.28;2.80;;;;;;;18.43;59.70;102300.47;4993414;28;20036;-70
2022/08/08 06:53:41;;;;;;;6.88;3.05;;;;;;;18.44;60.06;102307.66;4985344;28;20026;-70
2022/08/08 06:56:08;;;;;;;11.30;3.55;;;;;;;18.61;60.09;102305.72;4992895;28;20045;-70
2022/08/08 06:58:34;;;;;;;6.05;3.00;;;;;;;18.78;59.78;102309.28;5003124;28;20025;-70
2022/08/08 07:01:02;;;;;;;8.35;2.97;;;;;;;18.87;59.00;102311.00;4995574;28;20049;-69
2022/08/08 07:04:08;;;;;;;8.52;2.78;;;;;;;18.94;58.81;102314.72;5002516;28;20022;-70
2022/08/08 07:06:40;;;;;;;13.20;4.80;;;;;;;18.96;58.55;102318.16;4989436;28;20138;-70
2022/08/08 07:09:14;;;;;;;9.18;2.75;;;;;;;19.05;58.18;102311.59;5005712;28;20106;-70
2022/08/08 07:11:41;;;;;;;9.07;3.38;;;;;;;19.17;57.18;102314.78;4991934;28;20122;-70
2022/08/08 07:14:11;;;;;;;10.18;3.05;;;;;;;19.31;57.31;102313.19;4993983;28;20100;-70
2022/08/08 07:17:00;;;;;;;9.65;2.80;;;;;;;19.51;56.75;102319.91;4992173;28;20049;-69
2022/08/08 07:19:57;;;;;;;7.35;2.65;;;;;;;19.79;56.21;102318.34;5016308;28;20017;-70
2022/08/08 07:22:34;;;;;;;9.65;3.47;;;;;;;19.92;55.65;102316.88;4990893;28;20019;-70
2022/08/08 07:25:03;;;;;;;7.88;2.95;;;;;;;20.09;55.26;102307.47;4990693;28;20080;-70
2022/08/08 07:27:36;;;;;;;9.45;2.60;;;;;;;20.00;54.66;102308.56;5007288;28;20148;-70
2022/08/08 07:30:04;;;;;;;5.47;2.50;;;;;;;20.09;54.61;102312.13;4998197;28;20021;-69
2022/08/08 07:32:30;;;;;;;7.30;2.60;;;;;;;19.92;55.23;102305.88;5004189;28;20029;-69
2022/08/08 07:34:59;;;;;;;4.63;2.38;;;;;;;19.91;54.73;102312.44;4994010;28;20076;-70
2022/08/08 07:37:25;;;;;;;15.18;2.80;;;;;;;20.16;53.71;102313.94;5003256;28;20030;-69
2022/08/08 07:39:51;;;;;;;6.05;2.58;;;;;;;20.33;52.49;102309.94;5010394;28;20030;-69
2022/08/08 07:42:19;;;;;;;7.63;2.58;;;;;;;20.58;51.22;102312.47;4993559;28;20101;-71
2022/08/08 07:44:46;;;;;;;9.30;2.88;;;;;;;20.71;51.14;102315.41;5015920;28;20036;-71
2022/08/08 07:47:12;;;;;;;9.43;2.85;;;;;;;20.14;53.00;102327.00;5000473;28;20502;-71
2022/08/08 07:49:38;;;;;;;7.90;2.58;;;;;;;20.62;51.58;102319.31;5011489;28;20141;-69
2022/08/08 07:52:06;;;;;;;7.68;2.50;;;;;;;20.95;50.61;102318.94;4993241;28;20103;-69
2022/08/08 07:54:56;;;;;;;8.90;3.10;;;;;;;21.26;50.35;102325.06;5004812;28;20025;-69
2022/08/08 07:57:45;;;;;;;8.88;2.85;;;;;;;21.55;49.15;102326.03;4992135;28;20026;-69
2022/08/08 08:00:14;;;;;;;6.72;2.88;;;;;;;21.79;49.10;102331.19;5000071;28;20026;-69
2022/08/08 08:02:43;;;;;;;5.95;2.35;;;;;;;22.17;48.25;102325.41;4995990;28;20070;-70
2022/08/08 08:05:13;;;;;;;5.45;2.70;;;;;;;22.15;47.62;102327.50;4999493;28;20018;-70
2022/08/08 08:07:41;;;;;;;9.55;2.60;;;;;;;21.53;47.40;102328.16;4992692;28;20022;-70
2022/08/08 08:10:09;;;;;;;8.57;2.50;;;;;;;21.63;47.72;102325.91;5014777;28;20025;-71
2022/08/08 08:12:36;;;;;;;7.75;2.50;;;;;;;22.11;47.16;102331.72;5010453;28;20109;-71
2022/08/08 08:15:05;;;;;;;10.70;3.28;;;;;;;21.74;47.31;102335.56;4986125;28;20026;-69
2022/08/08 08:17:37;;;;;;;6.63;2.20;;;;;;;21.44;48.14;102323.78;4990275;28;20023;-69
2022/08/08 08:20:04;;;;;;;3.53;2.08;;;;;;;21.60;46.31;102329.06;4996730;28;20427;-69
2022/08/08 08:22:30;;;;;;;6.35;2.20;;;;;;;21.78;45.82;102335.00;4994594;28;20026;-70
2022/08/08 08:24:55;;;;;;;11.82;2.45;;;;;;;22.16;44.02;102334.72;4999547;28;20081;-70
2022/08/08 08:27:20;;;;;;;5.20;2.33;;;;;;;22.25;43.22;102333.53;5007406;28;20034;-70
2022/08/08 08:29:46;;;;;;;6.32;2.17;;;;;;;22.24;42.80;102331.81;5003117;28;20045;-70
2022/08/08 08:32:12;;;;;;;8.25;2.10;;;;;;;22.56;42.73;102326.72;4983693;28;20112;-70
2022/08/08 08:34:38;;;;;;;8.95;2.28;;;;;;;22.51;43.11;102332.03;4990254;28;20109;-70
2022/08/08 08:37:03;;;;;;;7.35;1.98;;;;;;;22.50;41.22;102335.84;5009165;28;20042;-70
2022/08/08 08:39:29;;;;;;;5.10;2.28;;;;;;;22.56;41.75;102324.84;4984181;28;20033;-71
2022/08/08 08:41:57;;;;;;;5.60;1.98;;;;;;;22.57;42.25;102343.09;4996436;28;20026;-70
2022/08/08 08:44:24;;;;;;;6.35;2.83;;;;;;;23.11;41.81;102333.22;4996884;28;20097;-70
2022/08/08 08:46:50;;;;;;;7.07;2.15;;;;;;;23.20;41.71;102332.84;4989906;28;20026;-70
2022/08/08 08:49:16;;;;;;;6.13;2.00;;;;;;;22.84;42.61;102338.59;5009366;28;20023;-70
2022/08/08 08:51:43;;;;;;;11.27;2.50;;;;;;;22.92;42.47;102335.69;5007150;28;20026;-69
2022/08/08 08:54:11;;;;;;;6.38;2.70;;;;;;;22.41;42.20;102344.25;4993496;28;20084;-71
2022/08/08 08:56:37;;;;;;;4.03;1.80;;;;;;;22.17;42.87;102337.28;5013558;28;20030;-70
2022/08/08 08:59:04;;;;;;;3.97;1.80;;;;;;;23.15;42.15;102334.53;4999702;28;20045;-70
2022/08/08 09:01:36;;;;;;;7.30;2.35;;;;;;;23.14;41.80;102341.09;4997620;28;20022;-71
2022/08/08 09:04:11;;;;;;;4.38;1.63;;;;;;;22.80;40.10;102348.34;4993461;28;20046;-71
2022/08/08 09:06:41;;;;;;;3.85;1.77;;;;;;;22.78;39.44;102339.41;4996600;28;20409;-71
2022/08/08 09:09:19;;;;;;;4.50;1.63;;;;;;;22.30;40.98;102347.59;5003286;28;20014;-71
2022/08/08 09:11:46;;;;;;;7.47;1.88;;;;;;;22.24;42.31;102348.38;4996844;28;20030;-70
2022/08/08 09:14:13;;;;;;;6.70;2.00;;;;;;;22.68;42.16;102347.19;5008109;28;20089;-71
2022/08/08 09:16:39;;;;;;;5.43;2.08;;;;;;;22.48;40.94;102342.38;4995913;28;20025;-71
2022/08/08 09:19:04;;;;;;;7.28;2.33;;;;;;;22.36;41.55;102346.75;4989110;28;20038;-70
2022/08/08 09:21:30;;;;;;;4.75;1.50;;;;;;;22.61;39.67;102338.88;5003749;28;20032;-70
2022/08/08 09:23:57;;;;;;;6.55;1.80;;;;;;;23.50;38.13;102338.91;5007537;28;20022;-71
2022/08/08 09:26:49;;;;;;;4.40;1.55;;;;;;;24.00;38.36;102338.59;5002895;28;20121;-70
2022/08/08 09:29:21;;;;;;;6.07;2.00;;;;;;;23.51;39.50;102335.06;4993666;28;20051;-71
2022/08/08 09:31:52;;;;;;;9.07;3.13;;;;;;;22.94;47.12;102347.38;4995215;28;20030;-70
2022/08/08 09:34:19;;;;;;;6.20;2.50;;;;;;;22.45;49.30;102351.09;5002393;28;20019;-69
2022/08/08 09:36:46;;;;;;;9.52;2.83;;;;;;;22.86;48.80;102344.78;4994958;28;20110;-69
2022/08/08 09:39:17;;;;;;;8.75;2.58;;;;;;;23.22;47.89;102343.72;4993864;28;20022;-69
2022/08/08 09:41:42;;;;;;;6.03;2.97;;;;;;;23.60;47.72;102354.22;4995677;28;20022;-70
2022/08/08 09:44:26;;;;;;;9.02;2.60;;;;;;;23.85;47.26;102347.09;5005949;28;20030;-69
2022/08/08 09:46:55;;;;;;;5.40;2.50;;;;;;;23.65;47.13;102346.19;4989881;28;20113;-70
2022/08/08 09:49:21;;;;;;;8.65;2.40;;;;;;;23.52;47.34;102342.31;5004765;28;20044;-70
2022/08/08 09:51:52;;;;;;;5.28;2.33;;;;;;;22.96;48.78;102337.00;4999837;28;20022;-70
2022/08/08 09:54:21;;;;;;;7.68;2.55;;;;;;;22.93;49.34;102345.69;5008931;28;20026;-70
2022/08/08 09:56:54;;;;;;;6.47;1.90;;;;;;;22.66;50.13;102341.03;5003307;28;20025;-70
2022/08/08 09:59:30;;;;;;;7.40;2.53;;;;;;;22.42;51.14;102348.72;4999598;28;20041;-70
2022/08/08 10:01:59;;;;;;;6.75;2.58;;;;;;;22.86;50.63;102347.56;4988933;28;20125;-70
2022/08/08 10:04:28;;;;;;;9.05;2.33;;;;;;;22.93;49.87;102348.44;5001317;28;20028;-70
2022/08/08 10:06:55;;;;;;;9.30;2.90;;;;;;;23.11;49.46;102347.91;4987575;28;20021;-70
2022/08/08 10:09:32;;;;;;;11.75;2.13;;;;;;;23.65;47.29;102351.72;4986409;28;20026;-70
2022/08/08 10:12:01;;;;;;;5.90;2.53;;;;;;;23.66;47.19;102354.28;5000157;28;20061;-70
2022/08/08 10:14:31;;;;;;;8.15;2.03;;;;;;;23.17;47.22;102343.47;4991212;28;20064;-71
2022/08/08 10:16:56;;;;;;;12.63;2.20;;;;;;;22.78;47.82;102347.69;5007721;28;20026;-70
2022/08/08 10:19:32;;;;;;;10.52;2.47;;;;;;;22.97;48.21;102347.00;5004746;28;20030;-70
2022/08/08 10:21:58;;;;;;;6.80;2.10;;;;;;;22.97;47.61;102343.38;5003445;28;20023;-70
2022/08/08 10:24:23;;;;;;;13.00;2.50;;;;;;;22.82;47.84;102346.25;4995869;28;20745;-70
2022/08/08 10:26:54;;;;;;;8.00;2.05;;;;;;;22.96;47.65;102348.06;4990722;28;20146;-70
2022/08/08 10:29:47;;;;;;;9.70;2.58;;;;;;;22.55;48.16;102344.34;5007276;28;20030;-70
2022/08/08 10:32:36;;;;;;;5.90;1.70;;;;;;;23.10;47.14;102342.59;4995136;28;20066;-71
2022/08/08 10:35:15;;;;;;;7.55;2.00;;;;;;;23.32;46.40;102346.91;4989935;28;20034;-71
2022/08/08 10:38:02;;;;;;;9.60;2.42;;;;;;;22.96;46.47;102345.28;4985063;28;20030;-71
2022/08/08 10:40:30;;;;;;;10.38;2.60;;;;;;;23.18;45.96;102347.94;4993608;28;20022;-72
2022/08/08 10:43:04;;;;;;;6.40;2.13;;;;;;;22.98;46.26;102348.69;4992296;28;20022;-70
2022/08/08 10:45:41;;;;;;;5.38;2.35;;;;;;;23.19;46.65;102344.09;4995298;28;20018;-71
2022/08/08 10:48:09;;;;;;;8.30;2.38;;;;;;;23.47;46.10;102344.88;4998963;28;20170;-70
2022/08/08 10:50:37;;;;;;;12.63;2.50;;;;;;;23.28;45.70;102340.97;4991726;28;20029;-70
2022/08/08 10:53:05;;;;;;;6.22;2.08;;;;;;;23.39;45.90;102347.78;4986517;28;20042;-70
2022/08/08 10:55:31;;;;;;;7.72;2.35;;;;;;;23.80;44.23;102344.13;5012656;28;20026;-70
2022/08/08 10:58:02;;;;;;;7.72;2.35;;;;;;;23.40;44.89;102343.97;5014933;28;20025;-70
2022/08/08 11:00:27;;;;;;;9.60;2.13;;;;;;;23.30;45.28;102338.00;4985863;28;20106;-71
2022/08/08 11:02:54;;;;;;;10.95;3.00;;;;;;;23.28;45.24;102342.88;5005680;28;20175;-70
2022/08/08 11:05:20;;;;;;;8.10;2.30;;;;;;;23.84;43.92;102342.63;5014125;28;20480;-70
2022/08/08 11:07:48;;;;;;;9.02;2.55;;;;;;;24.46;43.42;102344.16;4999098;28;20436;-70
2022/08/08 11:10:19;;;;;;;7.13;2.47;;;;;;;24.23;44.70;102332.63;5010039;28;20050;-71
2022/08/08 11:12:54;;;;;;;6.68;2.40;;;;;;;23.93;44.41;102346.91;4999682;28;20275;-70
2022/08/08 11:15:23;;;;;;;5.28;1.90;;;;;;;23.84;43.40;102342.63;4994648;28;20022;-72
2022/08/08 11:17:49;;;;;;;3.58;1.77;;;;;;;23.69;43.11;102347.50;4991396;28;20022;-71
2022/08/08 11:20:17;;;;;;;9.30;2.25;;;;;;;23.56;43.08;102343.59;4990394;28;20026;-71
2022/08/08 11:22:48;;;;;;;7.97;2.30;;;;;;;23.49;43.09;102342.72;4999886;28;20189;-72
2022/08/08 11:25:14;;;;;;;5.40;1.88;;;;;;;23.37;43.31;102344.41;4993943;28;20062;-71
2022/08/08 11:27:41;;;;;;;8.18;2.22;;;;;;;23.08;43.63;102355.72;5000816;28;20030;-71
2022/08/08 11:30:09;;;;;;;6.65;1.98;;;;;;;22.82;44.53;102337.97;4987058;28;20026;-71
2022/08/08 11:32:40;;;;;;;4.28;2.05;;;;;;;23.53;43.43;102348.69;4999455;28;20057;-70
2022/08/08 11:35:12;;;;;;;8.45;2.03;;;;;;;22.98;43.91;102340.41;4990628;28;20103;-71
2022/08/08 11:37:41;;;;;;;10.02;2.60;;;;;;;22.99;44.25;102350.38;4990410;28;20475;-71
2022/08/08 11:40:09;;;;;;;5.93;2.30;;;;;;;23.19;44.64;102335.81;5000936;28;20060;-71
2022/08/08 11:42:36;;;;;;;6.70;2.38;;;;;;;23.65;43.86;102343.44;5008429;28;20048;-71
2022/08/08 11:45:05;;;;;;;11.07;2.70;;;;;;;24.07;43.07;102340.31;4992113;28;20076;-71
2022/08/08 11:47:31;;;;;;;7.88;1.73;;;;;;;24.62;42.08;102343.69;4987509;28;20018;-71
2022/08/08 11:50:01;;;;;;;4.93;1.95;;;;;;;23.65;43.79;102348.97;4988917;28;20093;-71
2022/08/08 11:52:27;;;;;;;8.90;2.20;;;;;;;23.84;44.53;102345.38;4986312;28;20042;-71